METAR Data
IDs: Format: Raw Decoded Include TAF

Data at: 1021 UTC 21 Oct 2019

KVRB 210953Z AUTO 00000KT 10SM BKN100 25/23 A2995 RMK AO2 SLP140 T02500233
KVRB 210853Z AUTO 26003KT 10SM OVC095 26/24 A2994 RMK AO2 SLP138 T02560239 56006
KVRB 210753Z AUTO 24003KT 10SM OVC080 26/24 A2995 RMK AO2 SLP140 T02610239
KVRB 210653Z AUTO 20004KT 10SM OVC080 26/24 A2995 RMK AO2 SLP142 T02610239
KVRB 210553Z AUTO 17003KT 10SM OVC075 27/24 A2996 RMK AO2 SLP144 60001 T02670244 10283 20267 58005
KVRB 210453Z AUTO 00000KT 10SM OVC060 27/24 A2996 RMK AO2 SLP145 T02720244 403280256
KVRB 210353Z AUTO 00000KT 10SM OVC070 27/24 A2998 RMK AO2 SLP149 T02670244
KVRB 210253Z AUTO 23004KT 10SM SCT046 BKN065 OVC080 27/24 A2998 RMK AO2 SLP149 60001 T02670239 53011
KVRB 210153Z AUTO 00000KT 10SM OVC060 27/24 A2996 RMK AO2 SLP145 T02670244
KVRB 210053Z 19004KT 10SM FEW042 OVC060 27/24 A2995 RMK AO2 RAE18 SLP140 P0001 T02720239
KVRB 202353Z 00000KT 8SM -RA OVC060 28/24 A2994 RMK AO2 RAB50 SLP138 P0000 60000 T02830244 10328 20283 53014
KVRB 202253Z 04004KT 10SM BKN042 BKN055 OVC075 29/24 A2992 RMK AO2 SLP131 T02890239
KVRB 202153Z 00000KT 10SM BKN042 BKN070 31/23 A2991 RMK AO2 SLP126 T03110228
KVRB 202053Z 30005KT 10SM SCT060 OVC070 32/24 A2990 RMK AO2 SLP124 T03170239 55007
KVRB 201953Z 30006KT 10SM SCT037 SCT047 31/24 A2990 RMK AO2 SLP124 T03110239
KVRB 201853Z 24011KT 10SM BKN100 32/23 A2990 RMK AO2 SLP125 T03220228
KVRB 201753Z 23013KT 10SM BKN100 31/24 A2992 RMK AO2 SLP132 T03060239 10317 20256 58010
KVRB 201653Z 23010KT 10SM SCT023 BKN095 30/24 A2994 RMK AO2 SLP139 T03000244
KVRB 201553Z 21007KT 10SM BKN016 29/24 A2995 RMK AO2 SLP142 T02940244
KVRB 201540Z 24008KT 10SM BKN016 29/24 A2995 RMK AO2 T02890244
KVRB 201453Z 25010KT 10SM SCT030 OVC080 28/24 A2995 RMK AO2 SLP142 T02830239 52017
KVRB 201353Z 23010KT 10SM FEW012 BKN080 28/24 A2994 RMK AO2 SLP137 T02780244
KVRB 201253Z 22008KT 10SM SCT080 27/24 A2992 RMK AO2 SLP131 T02670239
KVRB 201153Z 21008KT 10SM CLR 26/23 A2991 RMK AO2 SLP125 70020 T02560233 10267 20256 53020
KVRB 201053Z AUTO 20008KT 10SM FEW050 BKN100 26/23 A2989 RMK AO2 SLP119 T02560233

KVRB 210532Z 2106/2206 VRB02KT P6SM FEW040 SCT080
  FM211400 22005KT P6SM FEW030 SCT070
  FM211800 16008KT P6SM SCT040 BKN080
  FM220100 20005KT P6SM FEW050 SCT100